sensor_id;sensor_type;location;lat;lon;timestamp;P1;durP1;ratioP1;P2;durP2;ratioP2
21611;SDS011;47005;52.292;13.452;2023-05-29T00:00:33;6.20;;;3.10;;
21611;SDS011;47005;52.292;13.452;2023-05-29T00:02:59;9.57;;;3.60;;
21611;SDS011;47005;52.292;13.452;2023-05-29T00:05:26;5.82;;;3.33;;
21611;SDS011;47005;52.292;13.452;2023-05-29T00:07:52;5.18;;;3.08;;
21611;SDS011;47005;52.292;13.452;2023-05-29T00:10:17;7.00;;;3.00;;
21611;SDS011;47005;52.292;13.452;2023-05-29T00:12:43;9.52;;;3.60;;
21611;SDS011;47005;52.292;13.452;2023-05-29T00:15:09;5.97;;;3.22;;
21611;SDS011;47005;52.292;13.452;2023-05-29T00:17:35;11.43;;;3.22;;
21611;SDS011;47005;52.292;13.452;2023-05-29T00:20:02;8.20;;;3.55;;
21611;SDS011;47005;52.292;13.452;2023-05-29T00:22:32;6.10;;;2.92;;
21611;SDS011;47005;52.292;13.452;2023-05-29T00:24:57;8.20;;;3.08;;
21611;SDS011;47005;52.292;13.452;2023-05-29T00:27:23;5.30;;;2.70;;
21611;SDS011;47005;52.292;13.452;2023-05-29T00:29:48;6.47;;;3.03;;
21611;SDS011;47005;52.292;13.452;2023-05-29T00:32:14;7.72;;;3.60;;
21611;SDS011;47005;52.292;13.452;2023-05-29T00:34:40;9.32;;;3.10;;
21611;SDS011;47005;52.292;13.452;2023-05-29T00:37:05;5.68;;;3.42;;
21611;SDS011;47005;52.292;13.452;2023-05-29T00:39:31;7.63;;;3.17;;
21611;SDS011;47005;52.292;13.452;2023-05-29T00:41:57;7.50;;;3.53;;
21611;SDS011;47005;52.292;13.452;2023-05-29T00:44:23;7.85;;;3.55;;
21611;SDS011;47005;52.292;13.452;2023-05-29T00:46:49;5.65;;;2.70;;
21611;SDS011;47005;52.292;13.452;2023-05-29T00:49:17;6.78;;;3.38;;
21611;SDS011;47005;52.292;13.452;2023-05-29T00:51:46;13.68;;;4.10;;
21611;SDS011;47005;52.292;13.452;2023-05-29T00:54:17;9.00;;;3.67;;
21611;SDS011;47005;52.292;13.452;2023-05-29T00:56:46;10.60;;;3.40;;
21611;SDS011;47005;52.292;13.452;2023-05-29T00:59:13;9.25;;;3.53;;
21611;SDS011;47005;52.292;13.452;2023-05-29T01:01:39;6.93;;;3.25;;
21611;SDS011;47005;52.292;13.452;2023-05-29T01:04:06;9.90;;;3.90;;
21611;SDS011;47005;52.292;13.452;2023-05-29T01:06:35;8.88;;;3.08;;
21611;SDS011;47005;52.292;13.452;2023-05-29T01:09:01;7.22;;;2.95;;
21611;SDS011;47005;52.292;13.452;2023-05-29T01:11:36;15.57;;;4.15;;
21611;SDS011;47005;52.292;13.452;2023-05-29T01:14:29;10.20;;;3.90;;
21611;SDS011;47005;52.292;13.452;2023-05-29T01:25:50;9.00;;;4.07;;
21611;SDS011;47005;52.292;13.452;2023-05-29T01:28:52;7.88;;;3.78;;
21611;SDS011;47005;52.292;13.452;2023-05-29T01:31:19;8.03;;;3.73;;
21611;SDS011;47005;52.292;13.452;2023-05-29T01:33:55;9.82;;;3.63;;
21611;SDS011;47005;52.292;13.452;2023-05-29T01:36:22;7.03;;;3.08;;
21611;SDS011;47005;52.292;13.452;2023-05-29T01:38:48;6.50;;;3.28;;
21611;SDS011;47005;52.292;13.452;2023-05-29T01:41:16;12.77;;;3.30;;
21611;SDS011;47005;52.292;13.452;2023-05-29T01:43:43;7.22;;;3.50;;
21611;SDS011;47005;52.292;13.452;2023-05-29T01:46:11;4.32;;;2.88;;
21611;SDS011;47005;52.292;13.452;2023-05-29T01:48:38;8.48;;;3.58;;
21611;SDS011;47005;52.292;13.452;2023-05-29T01:51:04;9.70;;;3.58;;
21611;SDS011;47005;52.292;13.452;2023-05-29T01:53:32;8.02;;;3.97;;
21611;SDS011;47005;52.292;13.452;2023-05-29T01:55:57;7.07;;;3.20;;
21611;SDS011;47005;52.292;13.452;2023-05-29T01:58:23;5.60;;;2.80;;
21611;SDS011;47005;52.292;13.452;2023-05-29T02:00:51;10.10;;;4.00;;
21611;SDS011;47005;52.292;13.452;2023-05-29T02:03:17;9.30;;;3.47;;
21611;SDS011;47005;52.292;13.452;2023-05-29T02:05:43;8.53;;;3.93;;
21611;SDS011;47005;52.292;13.452;2023-05-29T02:08:09;8.20;;;2.93;;
21611;SDS011;47005;52.292;13.452;2023-05-29T02:10:34;7.60;;;3.37;;
21611;SDS011;47005;52.292;13.452;2023-05-29T02:13:00;10.00;;;3.60;;
21611;SDS011;47005;52.292;13.452;2023-05-29T02:15:25;8.80;;;4.10;;
21611;SDS011;47005;52.292;13.452;2023-05-29T02:17:51;7.50;;;3.80;;
21611;SDS011;47005;52.292;13.452;2023-05-29T02:20:17;8.90;;;4.27;;
21611;SDS011;47005;52.292;13.452;2023-05-29T02:22:43;9.60;;;3.63;;
21611;SDS011;47005;52.292;13.452;2023-05-29T02:25:08;12.93;;;3.90;;
21611;SDS011;47005;52.292;13.452;2023-05-29T02:27:34;5.13;;;3.10;;
21611;SDS011;47005;52.292;13.452;2023-05-29T02:30:00;6.20;;;3.53;;
21611;SDS011;47005;52.292;13.452;2023-05-29T02:32:26;6.03;;;3.53;;
21611;SDS011;47005;52.292;13.452;2023-05-29T02:34:53;7.57;;;3.40;;
21611;SDS011;47005;52.292;13.452;2023-05-29T02:37:19;5.97;;;3.20;;
21611;SDS011;47005;52.292;13.452;2023-05-29T02:39:44;6.60;;;3.40;;
21611;SDS011;47005;52.292;13.452;2023-05-29T02:42:10;8.20;;;3.47;;
21611;SDS011;47005;52.292;13.452;2023-05-29T02:44:36;5.40;;;2.63;;
21611;SDS011;47005;52.292;13.452;2023-05-29T02:47:01;6.63;;;3.23;;
21611;SDS011;47005;52.292;13.452;2023-05-29T02:49:27;5.47;;;3.67;;
21611;SDS011;47005;52.292;13.452;2023-05-29T02:51:54;9.33;;;5.40;;
21611;SDS011;47005;52.292;13.452;2023-05-29T02:54:22;8.53;;;4.60;;
21611;SDS011;47005;52.292;13.452;2023-05-29T02:56:49;11.13;;;4.93;;
21611;SDS011;47005;52.292;13.452;2023-05-29T02:59:15;11.60;;;4.53;;
21611;SDS011;47005;52.292;13.452;2023-05-29T03:01:41;9.17;;;3.87;;
21611;SDS011;47005;52.292;13.452;2023-05-29T03:04:07;8.70;;;3.93;;
21611;SDS011;47005;52.292;13.452;2023-05-29T03:06:36;9.30;;;4.20;;
21611;SDS011;47005;52.292;13.452;2023-05-29T03:09:05;15.17;;;8.03;;
21611;SDS011;47005;52.292;13.452;2023-05-29T03:11:31;14.20;;;8.83;;
21611;SDS011;47005;52.292;13.452;2023-05-29T03:13:58;16.10;;;10.40;;
21611;SDS011;47005;52.292;13.452;2023-05-29T03:16:23;14.33;;;9.83;;
21611;SDS011;47005;52.292;13.452;2023-05-29T03:18:50;11.73;;;9.37;;
21611;SDS011;47005;52.292;13.452;2023-05-29T03:21:16;11.47;;;5.63;;
21611;SDS011;47005;52.292;13.452;2023-05-29T03:23:42;9.27;;;5.30;;
21611;SDS011;47005;52.292;13.452;2023-05-29T03:26:07;8.03;;;4.90;;
21611;SDS011;47005;52.292;13.452;2023-05-29T03:28:33;13.97;;;7.23;;
21611;SDS011;47005;52.292;13.452;2023-05-29T03:30:59;16.60;;;7.17;;
21611;SDS011;47005;52.292;13.452;2023-05-29T03:33:25;12.23;;;6.47;;
21611;SDS011;47005;52.292;13.452;2023-05-29T03:35:51;11.07;;;7.30;;
21611;SDS011;47005;52.292;13.452;2023-05-29T03:38:16;14.07;;;6.17;;
21611;SDS011;47005;52.292;13.452;2023-05-29T03:40:42;14.23;;;5.20;;
21611;SDS011;47005;52.292;13.452;2023-05-29T03:43:08;6.83;;;3.93;;
21611;SDS011;47005;52.292;13.452;2023-05-29T03:45:33;13.97;;;5.30;;
21611;SDS011;47005;52.292;13.452;2023-05-29T03:47:59;9.53;;;5.03;;
21611;SDS011;47005;52.292;13.452;2023-05-29T03:50:25;8.47;;;3.97;;
21611;SDS011;47005;52.292;13.452;2023-05-29T03:52:50;8.17;;;4.03;;
21611;SDS011;47005;52.292;13.452;2023-05-29T03:55:16;12.03;;;3.93;;
21611;SDS011;47005;52.292;13.452;2023-05-29T03:57:42;9.80;;;4.33;;
21611;SDS011;47005;52.292;13.452;2023-05-29T04:00:08;7.23;;;3.83;;
21611;SDS011;47005;52.292;13.452;2023-05-29T04:02:36;9.83;;;4.53;;
21611;SDS011;47005;52.292;13.452;2023-05-29T04:05:05;6.53;;;4.57;;
21611;SDS011;47005;52.292;13.452;2023-05-29T04:07:35;11.47;;;5.40;;
21611;SDS011;47005;52.292;13.452;2023-05-29T04:10:05;11.00;;;5.27;;
21611;SDS011;47005;52.292;13.452;2023-05-29T04:12:31;16.33;;;7.77;;
21611;SDS011;47005;52.292;13.452;2023-05-29T04:14:57;25.33;;;12.17;;
21611;SDS011;47005;52.292;13.452;2023-05-29T04:17:23;28.80;;;14.80;;
21611;SDS011;47005;52.292;13.452;2023-05-29T04:19:49;31.20;;;18.10;;
21611;SDS011;47005;52.292;13.452;2023-05-29T04:22:15;26.07;;;15.13;;
21611;SDS011;47005;52.292;13.452;2023-05-29T04:24:41;17.03;;;9.00;;
21611;SDS011;47005;52.292;13.452;2023-05-29T04:27:10;24.30;;;12.00;;
21611;SDS011;47005;52.292;13.452;2023-05-29T04:29:38;13.97;;;6.20;;
21611;SDS011;47005;52.292;13.452;2023-05-29T04:32:10;23.83;;;12.60;;
21611;SDS011;47005;52.292;13.452;2023-05-29T04:34:39;16.70;;;9.50;;
21611;SDS011;47005;52.292;13.452;2023-05-29T04:37:05;19.63;;;10.20;;
21611;SDS011;47005;52.292;13.452;2023-05-29T04:39:31;13.03;;;6.87;;
21611;SDS011;47005;52.292;13.452;2023-05-29T04:41:57;8.77;;;5.50;;
21611;SDS011;47005;52.292;13.452;2023-05-29T04:44:26;6.67;;;3.73;;
21611;SDS011;47005;52.292;13.452;2023-05-29T04:46:52;10.30;;;3.93;;
21611;SDS011;47005;52.292;13.452;2023-05-29T04:49:18;7.95;;;4.68;;
21611;SDS011;47005;52.292;13.452;2023-05-29T04:51:45;6.50;;;3.87;;
21611;SDS011;47005;52.292;13.452;2023-05-29T04:54:11;11.53;;;3.87;;
21611;SDS011;47005;52.292;13.452;2023-05-29T04:56:37;6.60;;;3.85;;
21611;SDS011;47005;52.292;13.452;2023-05-29T04:59:05;7.13;;;3.25;;
21611;SDS011;47005;52.292;13.452;2023-05-29T05:01:31;10.82;;;3.03;;
21611;SDS011;47005;52.292;13.452;2023-05-29T05:04:00;7.70;;;3.50;;
21611;SDS011;47005;52.292;13.452;2023-05-29T05:06:26;12.50;;;3.35;;
21611;SDS011;47005;52.292;13.452;2023-05-29T05:08:52;9.40;;;3.63;;
21611;SDS011;47005;52.292;13.452;2023-05-29T05:11:18;10.93;;;3.28;;
21611;SDS011;47005;52.292;13.452;2023-05-29T05:13:44;5.07;;;3.08;;
21611;SDS011;47005;52.292;13.452;2023-05-29T05:16:10;4.72;;;2.92;;
21611;SDS011;47005;52.292;13.452;2023-05-29T05:18:35;4.30;;;2.15;;
21611;SDS011;47005;52.292;13.452;2023-05-29T05:21:01;5.90;;;3.67;;
21611;SDS011;47005;52.292;13.452;2023-05-29T05:23:31;7.60;;;4.10;;
21611;SDS011;47005;52.292;13.452;2023-05-29T05:25:57;15.32;;;3.00;;
21611;SDS011;47005;52.292;13.452;2023-05-29T05:28:23;6.30;;;2.70;;
21611;SDS011;47005;52.292;13.452;2023-05-29T05:30:48;7.45;;;2.63;;
21611;SDS011;47005;52.292;13.452;2023-05-29T05:33:14;7.68;;;3.38;;
21611;SDS011;47005;52.292;13.452;2023-05-29T05:35:40;10.48;;;3.92;;
21611;SDS011;47005;52.292;13.452;2023-05-29T05:38:06;5.95;;;3.35;;
21611;SDS011;47005;52.292;13.452;2023-05-29T05:40:32;9.48;;;3.47;;
21611;SDS011;47005;52.292;13.452;2023-05-29T05:42:57;4.63;;;2.30;;
21611;SDS011;47005;52.292;13.452;2023-05-29T05:45:23;3.60;;;2.08;;
21611;SDS011;47005;52.292;13.452;2023-05-29T05:47:49;3.45;;;2.15;;
21611;SDS011;47005;52.292;13.452;2023-05-29T05:50:15;7.00;;;2.53;;
21611;SDS011;47005;52.292;13.452;2023-05-29T05:52:41;9.38;;;2.50;;
21611;SDS011;47005;52.292;13.452;2023-05-29T05:55:06;3.97;;;2.00;;
21611;SDS011;47005;52.292;13.452;2023-05-29T05:57:32;4.90;;;2.58;;
21611;SDS011;47005;52.292;13.452;2023-05-29T05:59:59;11.15;;;2.60;;
21611;SDS011;47005;52.292;13.452;2023-05-29T06:02:25;7.00;;;2.55;;
21611;SDS011;47005;52.292;13.452;2023-05-29T06:04:51;4.00;;;1.95;;
21611;SDS011;47005;52.292;13.452;2023-05-29T06:07:17;6.22;;;2.63;;
21611;SDS011;47005;52.292;13.452;2023-05-29T06:09:43;3.67;;;2.00;;
21611;SDS011;47005;52.292;13.452;2023-05-29T06:12:09;6.30;;;1.77;;
21611;SDS011;47005;52.292;13.452;2023-05-29T06:14:34;5.93;;;2.72;;
21611;SDS011;47005;52.292;13.452;2023-05-29T06:17:00;7.60;;;3.10;;
21611;SDS011;47005;52.292;13.452;2023-05-29T06:19:26;3.50;;;1.90;;
21611;SDS011;47005;52.292;13.452;2023-05-29T06:21:52;3.75;;;2.10;;
21611;SDS011;47005;52.292;13.452;2023-05-29T06:24:18;5.18;;;1.55;;
21611;SDS011;47005;52.292;13.452;2023-05-29T06:26:43;5.50;;;1.65;;
21611;SDS011;47005;52.292;13.452;2023-05-29T06:29:09;6.07;;;2.30;;
21611;SDS011;47005;52.292;13.452;2023-05-29T06:31:35;4.10;;;1.80;;
21611;SDS011;47005;52.292;13.452;2023-05-29T06:34:01;3.33;;;1.60;;
21611;SDS011;47005;52.292;13.452;2023-05-29T06:36:27;7.88;;;2.63;;
21611;SDS011;47005;52.292;13.452;2023-05-29T06:38:52;6.40;;;2.33;;
21611;SDS011;47005;52.292;13.452;2023-05-29T06:41:18;2.85;;;1.58;;
21611;SDS011;47005;52.292;13.452;2023-05-29T06:43:44;4.30;;;1.83;;
21611;SDS011;47005;52.292;13.452;2023-05-29T06:46:10;4.65;;;1.77;;
21611;SDS011;47005;52.292;13.452;2023-05-29T06:48:36;2.83;;;1.55;;
21611;SDS011;47005;52.292;13.452;2023-05-29T06:51:02;5.10;;;2.05;;
21611;SDS011;47005;52.292;13.452;2023-05-29T06:53:36;8.80;;;2.08;;
21611;SDS011;47005;52.292;13.452;2023-05-29T06:56:05;4.10;;;1.42;;
21611;SDS011;47005;52.292;13.452;2023-05-29T06:58:31;8.50;;;2.45;;
21611;SDS011;47005;52.292;13.452;2023-05-29T07:00:57;5.30;;;2.10;;
21611;SDS011;47005;52.292;13.452;2023-05-29T07:03:25;3.72;;;1.73;;
21611;SDS011;47005;52.292;13.452;2023-05-29T07:05:51;2.80;;;1.23;;
21611;SDS011;47005;52.292;13.452;2023-05-29T07:08:17;4.28;;;1.80;;
21611;SDS011;47005;52.292;13.452;2023-05-29T07:10:43;3.90;;;1.65;;
21611;SDS011;47005;52.292;13.452;2023-05-29T07:13:09;4.72;;;1.30;;
21611;SDS011;47005;52.292;13.452;2023-05-29T07:15:37;3.13;;;1.42;;
21611;SDS011;47005;52.292;13.452;2023-05-29T07:18:03;3.92;;;1.60;;
21611;SDS011;47005;52.292;13.452;2023-05-29T07:20:29;4.75;;;1.48;;
21611;SDS011;47005;52.292;13.452;2023-05-29T07:22:54;3.28;;;1.50;;
21611;SDS011;47005;52.292;13.452;2023-05-29T07:25:20;3.00;;;1.70;;
21611;SDS011;47005;52.292;13.452;2023-05-29T07:27:45;5.00;;;1.40;;
21611;SDS011;47005;52.292;13.452;2023-05-29T07:30:11;2.75;;;1.50;;
21611;SDS011;47005;52.292;13.452;2023-05-29T07:32:37;1.85;;;1.13;;
21611;SDS011;47005;52.292;13.452;2023-05-29T07:35:03;3.58;;;1.75;;
21611;SDS011;47005;52.292;13.452;2023-05-29T07:37:29;3.75;;;1.85;;
21611;SDS011;47005;52.292;13.452;2023-05-29T07:39:56;3.25;;;1.48;;
21611;SDS011;47005;52.292;13.452;2023-05-29T07:42:22;3.70;;;1.73;;
21611;SDS011;47005;52.292;13.452;2023-05-29T07:44:47;3.85;;;1.80;;
21611;SDS011;47005;52.292;13.452;2023-05-29T07:47:13;3.42;;;1.40;;
21611;SDS011;47005;52.292;13.452;2023-05-29T07:49:40;2.72;;;1.40;;
21611;SDS011;47005;52.292;13.452;2023-05-29T07:52:05;4.07;;;1.45;;
21611;SDS011;47005;52.292;13.452;2023-05-29T07:54:31;2.90;;;1.55;;
21611;SDS011;47005;52.292;13.452;2023-05-29T07:57:00;3.05;;;1.70;;
21611;SDS011;47005;52.292;13.452;2023-05-29T07:59:34;3.42;;;1.63;;
21611;SDS011;47005;52.292;13.452;2023-05-29T08:02:00;4.50;;;1.90;;
21611;SDS011;47005;52.292;13.452;2023-05-29T08:04:28;2.70;;;1.42;;
21611;SDS011;47005;52.292;13.452;2023-05-29T08:06:54;4.47;;;1.52;;
21611;SDS011;47005;52.292;13.452;2023-05-29T08:09:20;2.67;;;1.35;;
21611;SDS011;47005;52.292;13.452;2023-05-29T08:11:45;5.68;;;1.65;;
21611;SDS011;47005;52.292;13.452;2023-05-29T08:14:12;4.50;;;1.50;;
21611;SDS011;47005;52.292;13.452;2023-05-29T08:16:38;3.05;;;1.75;;
21611;SDS011;47005;52.292;13.452;2023-05-29T08:19:04;4.45;;;1.77;;
21611;SDS011;47005;52.292;13.452;2023-05-29T08:21:30;3.45;;;1.52;;
21611;SDS011;47005;52.292;13.452;2023-05-29T08:23:57;6.53;;;1.73;;
21611;SDS011;47005;52.292;13.452;2023-05-29T08:26:23;4.05;;;2.00;;
21611;SDS011;47005;52.292;13.452;2023-05-29T08:28:48;2.67;;;1.50;;
21611;SDS011;47005;52.292;13.452;2023-05-29T08:31:15;2.60;;;1.67;;
21611;SDS011;47005;52.292;13.452;2023-05-29T08:33:41;4.05;;;1.92;;
21611;SDS011;47005;52.292;13.452;2023-05-29T08:36:07;2.00;;;1.30;;
21611;SDS011;47005;52.292;13.452;2023-05-29T08:38:33;4.68;;;1.85;;
21611;SDS011;47005;52.292;13.452;2023-05-29T08:40:59;3.85;;;1.75;;
21611;SDS011;47005;52.292;13.452;2023-05-29T08:43:25;3.03;;;1.75;;
21611;SDS011;47005;52.292;13.452;2023-05-29T08:45:55;4.07;;;1.73;;
21611;SDS011;47005;52.292;13.452;2023-05-29T08:48:27;2.55;;;1.50;;
21611;SDS011;47005;52.292;13.452;2023-05-29T08:50:54;2.72;;;1.30;;
21611;SDS011;47005;52.292;13.452;2023-05-29T08:53:21;2.83;;;1.42;;
21611;SDS011;47005;52.292;13.452;2023-05-29T08:55:48;3.40;;;1.70;;
21611;SDS011;47005;52.292;13.452;2023-05-29T08:58:17;3.75;;;1.52;;
21611;SDS011;47005;52.292;13.452;2023-05-29T09:00:46;3.47;;;1.92;;
21611;SDS011;47005;52.292;13.452;2023-05-29T09:03:12;4.47;;;1.92;;
21611;SDS011;47005;52.292;13.452;2023-05-29T09:05:41;4.38;;;1.95;;
21611;SDS011;47005;52.292;13.452;2023-05-29T09:08:10;9.60;;;2.30;;
21611;SDS011;47005;52.292;13.452;2023-05-29T09:10:38;3.38;;;1.67;;
21611;SDS011;47005;52.292;13.452;2023-05-29T09:13:06;3.72;;;1.83;;
21611;SDS011;47005;52.292;13.452;2023-05-29T09:15:32;3.83;;;1.83;;
21611;SDS011;47005;52.292;13.452;2023-05-29T09:17:58;4.40;;;1.83;;
21611;SDS011;47005;52.292;13.452;2023-05-29T09:20:27;5.38;;;1.70;;
21611;SDS011;47005;52.292;13.452;2023-05-29T09:22:54;3.72;;;1.60;;
21611;SDS011;47005;52.292;13.452;2023-05-29T09:25:22;4.32;;;1.60;;
21611;SDS011;47005;52.292;13.452;2023-05-29T09:27:55;4.20;;;2.03;;
21611;SDS011;47005;52.292;13.452;2023-05-29T09:33:00;4.25;;;1.90;;
21611;SDS011;47005;52.292;13.452;2023-05-29T09:38:09;3.40;;;1.80;;
21611;SDS011;47005;52.292;13.452;2023-05-29T09:40:40;6.10;;;2.17;;
21611;SDS011;47005;52.292;13.452;2023-05-29T09:43:10;4.88;;;1.75;;
21611;SDS011;47005;52.292;13.452;2023-05-29T09:45:40;4.68;;;1.92;;
21611;SDS011;47005;52.292;13.452;2023-05-29T09:48:08;3.58;;;1.70;;
21611;SDS011;47005;52.292;13.452;2023-05-29T09:50:37;3.47;;;1.75;;
21611;SDS011;47005;52.292;13.452;2023-05-29T09:53:04;3.65;;;1.98;;
21611;SDS011;47005;52.292;13.452;2023-05-29T09:55:51;5.00;;;2.40;;
21611;SDS011;47005;52.292;13.452;2023-05-29T09:58:18;3.35;;;1.95;;
21611;SDS011;47005;52.292;13.452;2023-05-29T10:00:44;7.40;;;1.92;;
21611;SDS011;47005;52.292;13.452;2023-05-29T10:03:12;7.47;;;2.25;;
21611;SDS011;47005;52.292;13.452;2023-05-29T10:05:39;3.97;;;2.03;;
21611;SDS011;47005;52.292;13.452;2023-05-29T10:08:07;4.38;;;2.05;;
21611;SDS011;47005;52.292;13.452;2023-05-29T10:10:36;5.97;;;2.22;;
21611;SDS011;47005;52.292;13.452;2023-05-29T10:13:05;2.30;;;1.77;;
21611;SDS011;47005;52.292;13.452;2023-05-29T10:15:35;4.18;;;2.28;;
21611;SDS011;47005;52.292;13.452;2023-05-29T10:18:05;6.25;;;2.25;;
21611;SDS011;47005;52.292;13.452;2023-05-29T10:20:38;5.32;;;2.42;;
21611;SDS011;47005;52.292;13.452;2023-05-29T10:23:04;6.40;;;2.35;;
21611;SDS011;47005;52.292;13.452;2023-05-29T10:25:32;7.53;;;2.38;;
21611;SDS011;47005;52.292;13.452;2023-05-29T10:27:58;5.55;;;2.40;;
21611;SDS011;47005;52.292;13.452;2023-05-29T10:30:36;5.88;;;2.72;;
21611;SDS011;47005;52.292;13.452;2023-05-29T10:36:14;9.77;;;2.30;;
21611;SDS011;47005;52.292;13.452;2023-05-29T10:38:46;5.93;;;2.78;;
21611;SDS011;47005;52.292;13.452;2023-05-29T10:43:59;9.02;;;2.50;;
21611;SDS011;47005;52.292;13.452;2023-05-29T10:49:16;5.88;;;2.00;;
21611;SDS011;47005;52.292;13.452;2023-05-29T10:51:43;3.88;;;2.10;;
21611;SDS011;47005;52.292;13.452;2023-05-29T10:54:08;4.80;;;2.38;;
21611;SDS011;47005;52.292;13.452;2023-05-29T10:56:34;6.40;;;2.60;;
21611;SDS011;47005;52.292;13.452;2023-05-29T10:59:10;4.53;;;2.17;;
21611;SDS011;47005;52.292;13.452;2023-05-29T11:01:39;9.13;;;2.58;;
21611;SDS011;47005;52.292;13.452;2023-05-29T11:06:45;5.20;;;2.42;;
21611;SDS011;47005;52.292;13.452;2023-05-29T11:09:30;8.00;;;2.55;;
21611;SDS011;47005;52.292;13.452;2023-05-29T11:12:09;6.30;;;2.92;;
21611;SDS011;47005;52.292;13.452;2023-05-29T11:14:48;4.05;;;2.10;;
21611;SDS011;47005;52.292;13.452;2023-05-29T11:18:05;5.05;;;2.70;;
21611;SDS011;47005;52.292;13.452;2023-05-29T11:23:15;3.95;;;2.30;;
21611;SDS011;47005;52.292;13.452;2023-05-29T11:25:43;4.70;;;2.55;;
21611;SDS011;47005;52.292;13.452;2023-05-29T11:28:11;3.35;;;1.88;;
21611;SDS011;47005;52.292;13.452;2023-05-29T11:30:47;4.70;;;2.70;;
21611;SDS011;47005;52.292;13.452;2023-05-29T11:33:20;5.78;;;2.80;;
21611;SDS011;47005;52.292;13.452;2023-05-29T11:35:51;7.20;;;2.42;;
21611;SDS011;47005;52.292;13.452;2023-05-29T11:38:24;4.47;;;2.72;;
21611;SDS011;47005;52.292;13.452;2023-05-29T11:40:52;5.50;;;2.65;;
21611;SDS011;47005;52.292;13.452;2023-05-29T11:43:21;4.22;;;2.30;;
21611;SDS011;47005;52.292;13.452;2023-05-29T11:45:47;6.95;;;2.97;;
21611;SDS011;47005;52.292;13.452;2023-05-29T11:48:13;4.47;;;2.38;;
21611;SDS011;47005;52.292;13.452;2023-05-29T11:50:39;4.97;;;2.50;;
21611;SDS011;47005;52.292;13.452;2023-05-29T11:53:05;5.78;;;3.00;;
21611;SDS011;47005;52.292;13.452;2023-05-29T11:55:32;3.85;;;2.10;;
21611;SDS011;47005;52.292;13.452;2023-05-29T11:57:59;3.72;;;2.08;;
21611;SDS011;47005;52.292;13.452;2023-05-29T12:00:26;4.50;;;2.03;;
21611;SDS011;47005;52.292;13.452;2023-05-29T12:02:57;4.63;;;2.03;;
21611;SDS011;47005;52.292;13.452;2023-05-29T12:05:23;5.95;;;2.58;;
21611;SDS011;47005;52.292;13.452;2023-05-29T12:07:53;3.63;;;2.03;;
21611;SDS011;47005;52.292;13.452;2023-05-29T12:10:21;5.70;;;2.50;;
21611;SDS011;47005;52.292;13.452;2023-05-29T12:12:49;4.88;;;2.55;;
21611;SDS011;47005;52.292;13.452;2023-05-29T12:15:17;4.50;;;1.83;;
21611;SDS011;47005;52.292;13.452;2023-05-29T12:17:44;5.43;;;2.28;;
21611;SDS011;47005;52.292;13.452;2023-05-29T12:20:11;5.10;;;2.45;;
21611;SDS011;47005;52.292;13.452;2023-05-29T12:22:38;4.28;;;2.00;;
21611;SDS011;47005;52.292;13.452;2023-05-29T12:25:09;5.68;;;2.05;;
21611;SDS011;47005;52.292;13.452;2023-05-29T12:27:40;5.47;;;2.53;;
21611;SDS011;47005;52.292;13.452;2023-05-29T12:30:11;4.22;;;2.58;;
21611;SDS011;47005;52.292;13.452;2023-05-29T12:32:42;3.22;;;1.98;;
21611;SDS011;47005;52.292;13.452;2023-05-29T12:35:16;4.82;;;2.10;;
21611;SDS011;47005;52.292;13.452;2023-05-29T12:38:27;5.50;;;2.13;;
21611;SDS011;47005;52.292;13.452;2023-05-29T12:40:33;6.03;;;1.77;;
21611;SDS011;47005;52.292;13.452;2023-05-29T12:43:03;3.47;;;2.10;;
21611;SDS011;47005;52.292;13.452;2023-05-29T12:45:35;4.25;;;2.17;;
21611;SDS011;47005;52.292;13.452;2023-05-29T12:48:02;4.13;;;2.05;;
21611;SDS011;47005;52.292;13.452;2023-05-29T12:50:36;4.35;;;2.50;;
21611;SDS011;47005;52.292;13.452;2023-05-29T12:53:07;4.32;;;2.08;;
21611;SDS011;47005;52.292;13.452;2023-05-29T12:55:37;3.67;;;2.38;;
21611;SDS011;47005;52.292;13.452;2023-05-29T12:58:05;5.38;;;2.17;;
21611;SDS011;47005;52.292;13.452;2023-05-29T13:00:33;3.45;;;1.63;;
21611;SDS011;47005;52.292;13.452;2023-05-29T13:03:00;4.25;;;1.88;;
21611;SDS011;47005;52.292;13.452;2023-05-29T13:05:26;5.50;;;2.65;;
21611;SDS011;47005;52.292;13.452;2023-05-29T13:07:52;4.68;;;2.15;;
21611;SDS011;47005;52.292;13.452;2023-05-29T13:10:19;4.53;;;2.28;;
21611;SDS011;47005;52.292;13.452;2023-05-29T13:12:46;6.03;;;2.00;;
21611;SDS011;47005;52.292;13.452;2023-05-29T13:15:13;3.78;;;2.28;;
21611;SDS011;47005;52.292;13.452;2023-05-29T13:17:39;5.20;;;2.03;;
21611;SDS011;47005;52.292;13.452;2023-05-29T13:20:15;4.68;;;2.05;;
21611;SDS011;47005;52.292;13.452;2023-05-29T13:22:44;5.22;;;2.30;;
21611;SDS011;47005;52.292;13.452;2023-05-29T13:25:12;5.03;;;2.40;;
21611;SDS011;47005;52.292;13.452;2023-05-29T13:27:40;4.88;;;2.38;;
21611;SDS011;47005;52.292;13.452;2023-05-29T13:30:08;4.90;;;2.05;;
21611;SDS011;47005;52.292;13.452;2023-05-29T13:32:35;3.25;;;1.92;;
21611;SDS011;47005;52.292;13.452;2023-05-29T13:35:01;7.03;;;1.77;;
21611;SDS011;47005;52.292;13.452;2023-05-29T13:37:28;3.33;;;1.88;;
21611;SDS011;47005;52.292;13.452;2023-05-29T13:39:54;2.85;;;1.60;;
21611;SDS011;47005;52.292;13.452;2023-05-29T13:42:20;4.38;;;2.03;;
21611;SDS011;47005;52.292;13.452;2023-05-29T13:44:46;3.67;;;2.00;;
21611;SDS011;47005;52.292;13.452;2023-05-29T13:47:12;3.92;;;2.25;;
21611;SDS011;47005;52.292;13.452;2023-05-29T13:49:38;3.40;;;1.80;;
21611;SDS011;47005;52.292;13.452;2023-05-29T13:52:04;3.53;;;1.60;;
21611;SDS011;47005;52.292;13.452;2023-05-29T13:54:30;5.03;;;2.50;;
21611;SDS011;47005;52.292;13.452;2023-05-29T13:57:00;5.72;;;2.05;;
21611;SDS011;47005;52.292;13.452;2023-05-29T13:59:26;4.30;;;2.20;;
21611;SDS011;47005;52.292;13.452;2023-05-29T14:01:52;4.40;;;1.98;;
21611;SDS011;47005;52.292;13.452;2023-05-29T14:04:18;5.75;;;2.28;;
21611;SDS011;47005;52.292;13.452;2023-05-29T14:06:43;4.07;;;1.45;;
21611;SDS011;47005;52.292;13.452;2023-05-29T14:09:10;4.57;;;2.15;;
21611;SDS011;47005;52.292;13.452;2023-05-29T14:11:39;5.22;;;2.30;;
21611;SDS011;47005;52.292;13.452;2023-05-29T14:14:05;3.45;;;2.00;;
21611;SDS011;47005;52.292;13.452;2023-05-29T14:16:31;4.03;;;1.70;;
21611;SDS011;47005;52.292;13.452;2023-05-29T14:18:58;5.85;;;2.45;;
21611;SDS011;47005;52.292;13.452;2023-05-29T14:21:24;4.15;;;1.67;;
21611;SDS011;47005;52.292;13.452;2023-05-29T14:23:50;4.25;;;2.15;;
21611;SDS011;47005;52.292;13.452;2023-05-29T14:26:16;5.05;;;2.30;;
21611;SDS011;47005;52.292;13.452;2023-05-29T14:28:41;5.32;;;2.13;;
21611;SDS011;47005;52.292;13.452;2023-05-29T14:31:07;4.97;;;2.30;;
21611;SDS011;47005;52.292;13.452;2023-05-29T14:33:33;3.25;;;1.45;;
21611;SDS011;47005;52.292;13.452;2023-05-29T14:35:58;3.72;;;2.03;;
21611;SDS011;47005;52.292;13.452;2023-05-29T14:38:24;7.43;;;1.98;;
21611;SDS011;47005;52.292;13.452;2023-05-29T14:40:50;4.80;;;2.53;;
21611;SDS011;47005;52.292;13.452;2023-05-29T14:43:16;5.00;;;2.80;;
21611;SDS011;47005;52.292;13.452;2023-05-29T14:45:42;4.35;;;2.00;;
21611;SDS011;47005;52.292;13.452;2023-05-29T14:48:08;5.85;;;2.08;;
21611;SDS011;47005;52.292;13.452;2023-05-29T14:50:35;5.18;;;1.90;;
21611;SDS011;47005;52.292;13.452;2023-05-29T14:53:00;3.05;;;1.63;;
21611;SDS011;47005;52.292;13.452;2023-05-29T14:55:26;4.72;;;2.38;;
21611;SDS011;47005;52.292;13.452;2023-05-29T14:57:52;5.13;;;2.00;;
21611;SDS011;47005;52.292;13.452;2023-05-29T15:00:17;4.80;;;2.25;;
21611;SDS011;47005;52.292;13.452;2023-05-29T15:02:43;4.47;;;1.73;;